Time;durP1;ratioP1;P1;durP2;ratioP2;P2;SDS_P1;SDS_P2;PMS_P1;PMS_P2;Temp;Humidity;BMP_temperature;BMP_pressure;BME280_temperature;BME280_humidity;BME280_pressure;Samples;Min_cycle;Max_cycle;Signal;HPM_P1;HPM_P2
2021/11/18 00:00:15;;;;;;;14.25;2.92;;;;;;;-149.78;100.00;50502.75;5063025;28;20033;-67
2021/11/18 00:02:41;;;;;;;18.90;3.10;;;;;;;-149.78;100.00;50487.09;5059284;28;20438;-67
2021/11/18 00:05:07;;;;;;;19.63;3.47;;;;;;;-149.78;100.00;50518.38;5053584;28;20033;-67
2021/11/18 00:07:34;;;;;;;13.18;3.35;;;;;;;-149.78;100.00;50489.03;5057012;28;20094;-67
2021/11/18 00:09:59;;;;;;;12.77;3.17;;;;;;;-149.78;100.00;50506.66;5070099;28;20040;-67
2021/11/18 00:12:26;;;;;;;22.13;5.05;;;;;;;-149.78;100.00;50498.81;5073930;28;20036;-66
2021/11/18 00:14:51;;;;;;;13.80;3.30;;;;;;;-149.78;100.00;50526.22;5070886;28;20040;-66
2021/11/18 00:17:17;;;;;;;14.88;2.80;;;;;;;-149.78;100.00;50494.91;5072282;28;20048;-66
2021/11/18 00:19:43;;;;;;;11.50;2.83;;;;;;;-149.78;100.00;50518.38;5070663;28;20136;-66
2021/11/18 00:22:09;;;;;;;10.77;3.17;;;;;;;-149.78;100.00;50530.13;5066661;28;20115;-66
2021/11/18 00:24:35;;;;;;;19.60;3.10;;;;;;;-149.78;100.00;50467.53;5059757;28;20109;-66
2021/11/18 00:27:01;;;;;;;17.58;2.75;;;;;;;-149.78;100.00;50541.84;5066288;28;20037;-66
2021/11/18 00:29:27;;;;;;;15.02;3.88;;;;;;;-149.78;100.00;50514.47;5070015;28;20101;-66
2021/11/18 00:31:53;;;;;;;19.77;2.97;;;;;;;-149.78;100.00;50475.34;5061149;28;20048;-66
2021/11/18 00:34:23;;;;;;;8.43;2.42;;;;;;;-149.78;100.00;50463.63;5071494;28;20090;-66
2021/11/18 00:36:48;;;;;;;17.27;2.45;;;;;;;-149.78;100.00;50479.28;5068403;28;20044;-66
2021/11/18 00:39:14;;;;;;;17.75;3.63;;;;;;;-149.78;100.00;50498.81;5060244;28;20040;-66
2021/11/18 00:41:40;;;;;;;15.98;2.67;;;;;;;-149.78;100.00;50498.81;5060174;28;20120;-66
2021/11/18 00:44:07;;;;;;;12.45;2.72;;;;;;;-149.78;100.00;50475.34;5054186;28;20020;-66
2021/11/18 00:46:33;;;;;;;14.35;2.75;;;;;;;-149.78;100.00;50518.38;5062797;28;20036;-66
2021/11/18 00:49:00;;;;;;;14.82;2.90;;;;;;;-149.78;100.00;50502.75;5060517;28;20036;-66
2021/11/18 00:51:25;;;;;;;11.63;2.55;;;;;;;-149.78;100.00;50475.34;5064418;28;20085;-66
2021/11/18 00:53:55;;;;;;;9.93;2.30;;;;;;;-149.78;100.00;50471.44;5059111;28;20036;-66
2021/11/18 00:56:23;;;;;;;11.55;2.42;;;;;;;-149.78;100.00;50491.00;5057907;28;20024;-66
2021/11/18 00:58:51;;;;;;;11.50;2.33;;;;;;;-149.78;100.00;50465.56;5068413;28;20491;-66
2021/11/18 01:01:21;;;;;;;14.02;3.25;;;;;;;-149.78;100.00;50475.34;5061653;28;20032;-66
2021/11/18 01:03:48;;;;;;;10.18;2.33;;;;;;;-149.78;100.00;50467.53;5067771;28;20074;-66
2021/11/18 01:06:13;;;;;;;10.65;2.50;;;;;;;-149.78;100.00;50463.63;5053749;28;20028;-66
2021/11/18 01:08:39;;;;;;;10.98;2.70;;;;;;;-149.78;100.00;50463.63;5061668;28;20034;-66
2021/11/18 01:11:09;;;;;;;12.55;2.72;;;;;;;-149.78;100.00;50483.19;5072737;28;20039;-66
2021/11/18 01:13:36;;;;;;;17.85;2.47;;;;;;;-149.78;100.00;50453.84;5065631;28;20043;-66
2021/11/18 01:16:03;;;;;;;11.70;2.92;;;;;;;-149.78;100.00;50494.91;5070102;28;20036;-66
2021/11/18 01:18:30;;;;;;;18.58;3.13;;;;;;;-149.78;100.00;50506.66;5067353;28;20424;-66
2021/11/18 01:20:57;;;;;;;13.95;2.95;;;;;;;-149.78;100.00;50479.28;5063276;28;20040;-66
2021/11/18 01:23:30;;;;;;;12.77;2.20;;;;;;;-149.78;100.00;50506.66;5065183;28;20040;-66
2021/11/18 01:25:56;;;;;;;14.38;2.58;;;;;;;-149.78;100.00;50485.13;5059518;28;20029;-66
2021/11/18 01:28:21;;;;;;;12.95;2.60;;;;;;;-149.78;100.00;50491.00;5056999;28;20446;-66
2021/11/18 01:30:47;;;;;;;11.75;2.40;;;;;;;-149.78;100.00;50455.81;5064502;28;20044;-66
2021/11/18 01:33:15;;;;;;;11.40;2.20;;;;;;;-149.78;100.00;50471.44;5068976;28;20491;-66
2021/11/18 01:35:44;;;;;;;7.57;2.22;;;;;;;-149.78;100.00;50487.09;5069231;28;20041;-67
2021/11/18 01:38:10;;;;;;;10.60;2.63;;;;;;;-149.78;100.00;50483.19;5068934;28;20025;-66
2021/11/18 01:40:39;;;;;;;16.05;2.50;;;;;;;-149.78;100.00;50475.34;5066715;28;20055;-66
2021/11/18 01:43:08;;;;;;;15.20;2.17;;;;;;;-149.78;100.00;50473.41;5062964;28;20120;-66
2021/11/18 01:45:34;;;;;;;7.90;2.10;;;;;;;-149.78;100.00;50469.50;5067311;28;20032;-66
2021/11/18 01:47:59;;;;;;;6.43;2.00;;;;;;;-149.78;100.00;50471.44;5069074;28;20040;-66
2021/11/18 01:50:27;;;;;;;10.52;2.00;;;;;;;-149.78;100.00;50475.34;5069445;28;20115;-67
2021/11/18 01:52:55;;;;;;;14.68;2.35;;;;;;;-149.78;100.00;50459.72;5064787;28;20032;-66
2021/11/18 01:55:21;;;;;;;12.43;3.35;;;;;;;-149.78;100.00;50510.56;5065188;28;20036;-66
2021/11/18 01:57:50;;;;;;;10.50;2.20;;;;;;;-149.78;100.00;50475.34;5067752;28;20035;-66
2021/11/18 02:00:26;;;;;;;14.23;2.90;;;;;;;-149.78;100.00;50479.28;5054649;28;20029;-66
2021/11/18 02:02:52;;;;;;;10.00;2.13;;;;;;;-149.78;100.00;50455.81;5065810;28;20106;-66
2021/11/18 02:05:22;;;;;;;18.00;2.47;;;;;;;-149.78;100.00;50447.97;5063467;28;20075;-66
2021/11/18 02:07:48;;;;;;;12.27;2.13;;;;;;;-149.78;100.00;50485.13;5055247;28;20037;-66
2021/11/18 02:10:19;;;;;;;14.27;2.72;;;;;;;-149.78;100.00;50510.56;5056884;28;20033;-66
2021/11/18 02:12:45;;;;;;;16.08;2.65;;;;;;;-149.78;100.00;50467.53;5064788;28;20376;-66
2021/11/18 02:15:22;;;;;;;10.68;2.30;;;;;;;-149.78;100.00;50457.75;5060811;28;20409;-66
2021/11/18 02:17:48;;;;;;;10.13;2.42;;;;;;;-149.78;100.00;50491.00;5069827;28;20033;-66
2021/11/18 02:20:24;;;;;;;7.10;1.90;;;;;;;-149.78;100.00;50469.50;5065525;28;20040;-66
2021/11/18 02:22:50;;;;;;;16.95;2.33;;;;;;;-149.78;100.00;50500.78;5071072;28;20032;-66
2021/11/18 02:25:15;;;;;;;9.10;2.20;;;;;;;-149.78;100.00;50463.63;5065457;28;20049;-66
2021/11/18 02:27:41;;;;;;;11.43;2.30;;;;;;;-149.78;100.00;50508.59;5060613;28;20037;-66
2021/11/18 02:30:08;;;;;;;8.48;2.20;;;;;;;-149.78;100.00;50453.84;5060377;28;20044;-67
2021/11/18 02:32:37;;;;;;;9.95;2.38;;;;;;;-149.78;100.00;50475.34;5068022;28;20042;-66
2021/11/18 02:35:03;;;;;;;14.70;3.22;;;;;;;-149.78;100.00;50494.91;5068635;28;20041;-66
2021/11/18 02:37:29;;;;;;;6.05;2.03;;;;;;;-149.78;100.00;50475.34;5071300;28;20025;-66
2021/11/18 02:39:55;;;;;;;8.70;2.13;;;;;;;-149.78;100.00;50518.38;5075285;28;20453;-66
2021/11/18 02:42:23;;;;;;;13.27;2.10;;;;;;;-149.78;100.00;50477.31;5060550;28;20044;-66
2021/11/18 02:44:49;;;;;;;11.25;2.38;;;;;;;-149.78;100.00;50483.19;5056015;28;20035;-66
2021/11/18 02:47:15;;;;;;;11.77;2.28;;;;;;;-149.78;100.00;50492.97;5066232;28;20048;-66
2021/11/18 02:49:45;;;;;;;16.67;3.55;;;;;;;-149.78;100.00;50475.34;5064596;28;20033;-66
2021/11/18 02:52:13;;;;;;;18.08;2.80;;;;;;;-149.78;100.00;50467.53;5066609;28;20388;-66
2021/11/18 02:54:39;;;;;;;7.63;2.33;;;;;;;-149.78;100.00;50479.28;5060486;28;20047;-66
2021/11/18 02:57:06;;;;;;;13.93;2.40;;;;;;;-149.78;100.00;50477.31;5064191;28;20045;-66
2021/11/18 02:59:32;;;;;;;9.23;2.53;;;;;;;-149.78;100.00;50475.34;5057474;28;20041;-66
2021/11/18 03:01:58;;;;;;;12.27;2.35;;;;;;;-149.78;100.00;50504.69;5064880;28;20041;-66
2021/11/18 03:04:24;;;;;;;13.55;2.13;;;;;;;-149.78;100.00;50491.00;5064467;28;20036;-67
2021/11/18 03:06:49;;;;;;;8.88;2.38;;;;;;;-149.78;100.00;50461.66;5064095;28;20040;-66
2021/11/18 03:09:15;;;;;;;6.60;2.38;;;;;;;-149.78;100.00;50475.34;5066721;28;20043;-63
2021/11/18 03:11:41;;;;;;;14.10;3.28;;;;;;;-149.78;100.00;50483.19;5060433;28;20033;-63
2021/11/18 03:14:07;;;;;;;15.88;2.47;;;;;;;-149.78;100.00;50465.56;5059615;28;20063;-63
2021/11/18 03:16:33;;;;;;;12.30;2.63;;;;;;;-149.78;100.00;50475.34;5070134;28;20028;-63
2021/11/18 03:18:59;;;;;;;13.13;2.67;;;;;;;-149.78;100.00;50491.00;5065543;28;20044;-63
2021/11/18 03:21:28;;;;;;;12.93;3.05;;;;;;;-149.78;100.00;50487.09;5069137;28;20033;-63
2021/11/18 03:23:54;;;;;;;15.48;3.45;;;;;;;-149.78;100.00;50436.25;5068602;28;20028;-63
2021/11/18 03:26:23;;;;;;;11.43;2.53;;;;;;;-149.78;100.00;50508.59;5065737;28;20368;-63
2021/11/18 03:28:49;;;;;;;13.68;2.42;;;;;;;-149.78;100.00;50491.00;5070943;28;20060;-62
2021/11/18 03:31:16;;;;;;;16.90;2.97;;;;;;;-149.78;100.00;50467.53;5073340;28;20443;-63
2021/11/18 03:34:06;;;;;;;12.93;2.47;;;;;;;-149.78;100.00;50483.19;5069185;28;20030;-62
2021/11/18 03:36:32;;;;;;;11.27;2.58;;;;;;;-149.78;100.00;50487.09;5066287;28;20072;-62
2021/11/18 03:38:59;;;;;;;13.35;3.47;;;;;;;-149.78;100.00;50487.09;5059556;28;20063;-63
2021/11/18 03:41:27;;;;;;;7.45;2.22;;;;;;;-149.78;100.00;50494.91;5067518;28;20045;-62
2021/11/18 03:43:59;;;;;;;13.70;3.08;;;;;;;-149.78;100.00;50479.28;5069907;28;20029;-63
2021/11/18 03:46:30;;;;;;;9.43;2.17;;;;;;;-149.78;100.00;50483.19;5070101;28;20033;-62
2021/11/18 03:48:57;;;;;;;11.05;2.45;;;;;;;-149.78;100.00;50491.00;5061192;28;20091;-62
2021/11/18 03:51:24;;;;;;;13.48;2.38;;;;;;;-149.78;100.00;50489.03;5067385;28;20036;-62
2021/11/18 03:53:49;;;;;;;10.40;3.25;;;;;;;-149.78;100.00;50483.19;5063141;28;20117;-63
2021/11/18 03:56:22;;;;;;;16.95;2.83;;;;;;;-149.78;100.00;50485.13;5065207;28;20447;-63
2021/11/18 03:58:47;;;;;;;7.32;3.28;;;;;;;-149.78;100.00;50485.13;5064531;28;20024;-63
2021/11/18 04:01:14;;;;;;;9.45;2.50;;;;;;;-149.78;100.00;50451.88;5059569;28;20039;-62
2021/11/18 04:03:40;;;;;;;11.27;2.65;;;;;;;-149.78;100.00;50471.44;5068019;28;20055;-63
2021/11/18 04:06:06;;;;;;;11.60;2.47;;;;;;;-149.78;100.00;50467.53;5060613;28;20485;-63
2021/11/18 04:08:32;;;;;;;7.95;2.47;;;;;;;-149.78;100.00;50483.19;5064750;28;20048;-63
2021/11/18 04:10:57;;;;;;;14.40;2.53;;;;;;;-149.78;100.00;50487.09;5066399;28;20033;-62
2021/11/18 04:13:24;;;;;;;12.65;2.55;;;;;;;-149.78;100.00;50475.34;5068211;28;20127;-62
2021/11/18 04:15:49;;;;;;;15.48;2.70;;;;;;;-149.78;100.00;50502.75;5064816;28;20483;-63
2021/11/18 04:18:23;;;;;;;8.80;2.97;;;;;;;-149.78;100.00;50455.81;5072132;28;20032;-62
2021/11/18 04:20:51;;;;;;;8.70;2.50;;;;;;;-149.78;100.00;50471.44;5059577;28;20044;-63
2021/11/18 04:23:21;;;;;;;8.18;2.67;;;;;;;-149.78;100.00;50483.19;5073591;28;20376;-63
2021/11/18 04:25:47;;;;;;;9.20;2.42;;;;;;;-149.78;100.00;50463.63;5073378;28;20021;-63
2021/11/18 04:28:13;;;;;;;10.60;3.03;;;;;;;-149.78;100.00;50467.53;5067665;28;20028;-63
2021/11/18 04:31:05;;;;;;;6.82;3.03;;;;;;;-149.78;100.00;50514.47;5067614;28;20487;-63
2021/11/18 04:33:33;;;;;;;11.07;2.70;;;;;;;-149.78;100.00;50459.72;5066234;28;20133;-62
2021/11/18 04:36:01;;;;;;;8.77;2.45;;;;;;;-149.78;100.00;50473.41;5070078;28;20029;-62
2021/11/18 04:38:27;;;;;;;7.13;2.63;;;;;;;-149.78;100.00;50483.19;5057710;28;20179;-63
2021/11/18 04:40:54;;;;;;;12.18;2.28;;;;;;;-149.78;100.00;50487.09;5067912;28;20028;-63
2021/11/18 04:43:21;;;;;;;15.00;2.08;;;;;;;-149.78;100.00;50467.53;5064935;28;20417;-63
2021/11/18 04:45:46;;;;;;;12.80;3.75;;;;;;;-149.78;100.00;50459.72;5061966;28;20033;-62
2021/11/18 04:48:12;;;;;;;9.35;2.28;;;;;;;-149.78;100.00;50487.09;5069653;28;20036;-63
2021/11/18 04:50:41;;;;;;;5.97;1.90;;;;;;;-149.78;100.00;50491.00;5064536;28;20032;-62
2021/11/18 04:53:06;;;;;;;8.85;1.95;;;;;;;-149.78;100.00;50469.50;5063921;28;20025;-63
2021/11/18 04:55:35;;;;;;;6.53;1.52;;;;;;;-149.78;100.00;50477.31;5059615;28;20036;-63
2021/11/18 04:58:01;;;;;;;6.32;1.58;;;;;;;-149.78;100.00;50455.81;5064369;28;20033;-63
2021/11/18 05:00:33;;;;;;;6.05;1.60;;;;;;;-149.78;100.00;50440.16;5064384;28;20422;-63
2021/11/18 05:03:01;;;;;;;5.65;1.80;;;;;;;-149.78;100.00;50467.53;5066241;28;20035;-63
2021/11/18 05:05:27;;;;;;;4.20;1.45;;;;;;;-149.78;100.00;50475.34;5062264;28;20035;-63
2021/11/18 05:07:54;;;;;;;6.97;2.35;;;;;;;-149.78;100.00;50494.91;5064075;28;20368;-63
2021/11/18 05:10:22;;;;;;;2.72;1.67;;;;;;;-149.78;100.00;50422.56;5063009;28;20028;-63
2021/11/18 05:12:48;;;;;;;7.05;2.70;;;;;;;-149.78;100.00;50459.72;5055401;28;20129;-62
2021/11/18 05:15:17;;;;;;;8.85;3.90;;;;;;;-149.78;100.00;50414.72;5062220;28;20110;-63
2021/11/18 05:17:47;;;;;;;12.55;4.80;;;;;;;-149.78;100.00;50447.97;5059032;28;20044;-63
2021/11/18 05:20:16;;;;;;;7.55;3.22;;;;;;;-149.78;100.00;50485.13;5066102;28;20047;-63
2021/11/18 05:22:43;;;;;;;10.82;3.20;;;;;;;-149.78;100.00;50447.97;5069363;28;20037;-62
2021/11/18 05:25:09;;;;;;;5.93;2.83;;;;;;;-149.78;100.00;50467.53;5068794;28;20028;-63
2021/11/18 05:27:35;;;;;;;4.60;2.10;;;;;;;-149.78;100.00;50465.56;5064190;28;20038;-63
2021/11/18 05:30:01;;;;;;;8.93;3.20;;;;;;;-149.78;100.00;50479.28;5065421;28;20033;-63
2021/11/18 05:32:26;;;;;;;6.15;2.40;;;;;;;-149.78;100.00;50447.97;5057574;28;20045;-63
2021/11/18 05:34:52;;;;;;;3.65;1.60;;;;;;;-149.78;100.00;50479.28;5063073;28;20110;-63
2021/11/18 05:37:18;;;;;;;5.25;1.50;;;;;;;-149.78;100.00;50432.31;5063835;28;20064;-63
2021/11/18 05:39:43;;;;;;;3.25;1.30;;;;;;;-149.78;100.00;50447.97;5068854;28;20044;-63
2021/11/18 05:42:09;;;;;;;5.30;1.40;;;;;;;-149.78;100.00;50483.19;5057158;28;20037;-63
2021/11/18 05:44:36;;;;;;;3.63;1.30;;;;;;;-149.78;100.00;50459.72;5057538;28;20041;-62
2021/11/18 05:47:02;;;;;;;8.02;1.80;;;;;;;-149.78;100.00;50479.28;5063170;28;20115;-62
2021/11/18 05:49:28;;;;;;;5.68;1.10;;;;;;;-149.78;100.00;50463.63;5065131;28;20033;-63
2021/11/18 05:51:53;;;;;;;4.80;1.17;;;;;;;-149.78;100.00;50481.22;5060360;28;20037;-63
2021/11/18 05:54:19;;;;;;;2.40;1.20;;;;;;;-149.78;100.00;50467.53;5059314;28;20045;-63
2021/11/18 05:56:45;;;;;;;4.30;0.93;;;;;;;-149.78;100.00;50432.31;5067759;28;20028;-63
2021/11/18 05:59:12;;;;;;;4.00;1.05;;;;;;;-149.78;100.00;50463.63;5057410;28;20033;-63
2021/11/18 06:01:38;;;;;;;7.00;1.63;;;;;;;-149.78;100.00;50479.28;5062550;28;20056;-63
2021/11/18 06:04:05;;;;;;;3.58;0.98;;;;;;;-149.78;100.00;50455.81;5065392;28;20037;-63
2021/11/18 06:06:32;;;;;;;4.63;1.30;;;;;;;-149.78;100.00;50463.63;5057082;28;20424;-63
2021/11/18 06:09:03;;;;;;;2.38;1.20;;;;;;;-149.78;100.00;50440.16;5061027;28;20075;-63
2021/11/18 06:11:31;;;;;;;1.73;0.90;;;;;;;-149.78;100.00;50491.00;5069547;28;20034;-63
2021/11/18 06:13:57;;;;;;;2.75;1.02;;;;;;;-149.78;100.00;50455.81;5065094;28;20373;-62
2021/11/18 06:16:26;;;;;;;2.88;1.17;;;;;;;-149.78;100.00;50477.31;5064420;28;20036;-63
2021/11/18 06:18:54;;;;;;;3.72;1.20;;;;;;;-149.78;100.00;50432.31;5061434;28;20086;-63
2021/11/18 06:21:20;;;;;;;4.90;1.58;;;;;;;-149.78;100.00;50428.41;5064720;28;20032;-63
2021/11/18 06:23:46;;;;;;;7.78;2.10;;;;;;;-149.78;100.00;50483.19;5060540;28;20090;-63
2021/11/18 06:26:14;;;;;;;2.97;1.50;;;;;;;-149.78;100.00;50440.16;5061818;28;20029;-63
2021/11/18 06:28:41;;;;;;;3.88;1.73;;;;;;;-149.78;100.00;50440.16;5064973;28;20029;-63
2021/11/18 06:31:10;;;;;;;3.95;1.65;;;;;;;-149.78;100.00;50467.53;5057899;28;20055;-63
2021/11/18 06:33:36;;;;;;;5.57;2.00;;;;;;;-149.78;100.00;50475.34;5055568;28;20025;-63
2021/11/18 06:36:02;;;;;;;4.40;1.95;;;;;;;-149.78;100.00;50459.72;5056329;28;20431;-63
2021/11/18 06:38:28;;;;;;;4.72;2.15;;;;;;;-149.78;100.00;50440.16;5060243;28;20547;-63
2021/11/18 06:40:54;;;;;;;5.63;2.10;;;;;;;-149.78;100.00;50451.88;5058706;28;20112;-63
2021/11/18 06:43:21;;;;;;;4.60;2.20;;;;;;;-149.78;100.00;50475.34;5067879;28;20134;-63
2021/11/18 06:45:47;;;;;;;4.88;2.53;;;;;;;-149.78;100.00;50467.53;5069873;28;20133;-63
2021/11/18 06:48:15;;;;;;;7.30;2.10;;;;;;;-149.78;100.00;50487.09;5069348;28;20096;-63
2021/11/18 06:50:41;;;;;;;3.67;1.92;;;;;;;-149.78;100.00;50471.44;5066413;28;20033;-63
2021/11/18 06:53:07;;;;;;;3.75;1.70;;;;;;;-149.78;100.00;50483.19;5059161;28;20033;-63
2021/11/18 06:55:33;;;;;;;3.75;2.20;;;;;;;-149.78;100.00;50483.19;5066303;28;20040;-63
2021/11/18 06:57:59;;;;;;;2.97;1.90;;;;;;;-149.78;100.00;50447.97;5067693;28;20068;-63
2021/11/18 07:00:24;;;;;;;3.17;1.95;;;;;;;-149.78;100.00;50440.16;5069162;28;20106;-62
2021/11/18 07:02:50;;;;;;;4.57;1.80;;;;;;;-149.78;100.00;50463.63;5066878;28;20399;-63
2021/11/18 07:05:16;;;;;;;4.28;2.08;;;;;;;-149.78;100.00;50459.72;5067098;28;20476;-63
2021/11/18 07:07:42;;;;;;;7.00;2.55;;;;;;;-149.78;100.00;50463.63;5071025;28;20040;-62
2021/11/18 07:10:10;;;;;;;6.88;2.25;;;;;;;-149.78;100.00;50479.28;5072383;28;21232;-62
2021/11/18 07:12:35;;;;;;;6.10;2.40;;;;;;;-149.78;100.00;50481.22;5069551;28;20163;-62
2021/11/18 07:15:02;;;;;;;3.47;2.55;;;;;;;-149.78;100.00;50481.22;5069855;28;20452;-63
2021/11/18 07:17:28;;;;;;;6.22;2.40;;;;;;;-149.78;100.00;50471.44;5069588;28;20033;-63
2021/11/18 07:19:54;;;;;;;3.92;2.20;;;;;;;-149.78;100.00;50461.66;5073387;28;20522;-62
2021/11/18 07:22:20;;;;;;;4.00;2.45;;;;;;;-149.78;100.00;50451.88;5071809;28;20121;-64
2021/11/18 07:24:45;;;;;;;3.65;2.30;;;;;;;-149.78;100.00;50471.44;5070842;28;20020;-62
2021/11/18 07:27:11;;;;;;;5.72;2.35;;;;;;;-149.78;100.00;50455.81;5071283;28;20032;-63
2021/11/18 07:29:37;;;;;;;5.20;2.67;;;;;;;-149.78;100.00;50471.44;5068516;28;20503;-63
2021/11/18 07:32:04;;;;;;;3.92;2.50;;;;;;;-149.78;100.00;50459.72;5068913;28;20048;-63
2021/11/18 07:34:30;;;;;;;7.13;3.05;;;;;;;-149.78;100.00;50434.28;5070177;28;20048;-61
2021/11/18 07:36:55;;;;;;;5.05;3.03;;;;;;;-149.78;100.00;50451.88;5071907;28;20418;-63
2021/11/18 07:39:24;;;;;;;6.85;3.08;;;;;;;-149.78;100.00;50485.13;5070901;28;20028;-63
2021/11/18 07:41:51;;;;;;;5.47;3.40;;;;;;;-149.78;100.00;50469.50;5070545;28;20399;-62
2021/11/18 07:44:17;;;;;;;6.70;4.22;;;;;;;-149.78;100.00;50428.41;5072284;28;20078;-62
2021/11/18 07:46:44;;;;;;;6.13;3.60;;;;;;;-149.78;100.00;50469.50;5068553;28;20040;-62
2021/11/18 07:49:10;;;;;;;6.07;3.83;;;;;;;-149.78;100.00;50440.16;5065900;28;20124;-62
2021/11/18 07:51:38;;;;;;;6.80;4.18;;;;;;;-149.78;100.00;50469.50;5070766;28;20124;-62
2021/11/18 07:54:05;;;;;;;7.00;4.07;;;;;;;-149.78;100.00;50459.72;5070358;28;20464;-62
2021/11/18 07:56:32;;;;;;;6.88;3.88;;;;;;;-149.78;100.00;50483.19;5070381;28;20592;-62
2021/11/18 07:58:58;;;;;;;8.10;4.47;;;;;;;-149.78;100.00;50455.81;5063539;28;20468;-62
2021/11/18 08:01:24;;;;;;;8.55;4.38;;;;;;;-149.78;100.00;50424.50;5068575;28;20494;-66
2021/11/18 08:03:50;;;;;;;6.35;3.92;;;;;;;-149.78;100.00;50430.38;5072010;28;20038;-63
2021/11/18 08:06:21;;;;;;;6.80;4.40;;;;;;;-149.78;100.00;50440.16;5068019;28;20037;-62
2021/11/18 08:08:51;;;;;;;8.65;3.75;;;;;;;-149.78;100.00;50463.63;5070791;28;20063;-63
2021/11/18 08:11:27;;;;;;;8.07;4.18;;;;;;;-149.78;100.00;50449.94;5070466;28;20060;-63
2021/11/18 08:13:54;;;;;;;7.82;3.63;;;;;;;-149.78;100.00;50455.81;5066699;28;20029;-64
2021/11/18 08:16:21;;;;;;;6.47;3.78;;;;;;;-149.78;100.00;50428.41;5069893;28;20040;-64
2021/11/18 08:18:48;;;;;;;6.40;3.45;;;;;;;-149.78;100.00;50447.97;5068852;28;20508;-64
2021/11/18 08:21:14;;;;;;;4.93;3.25;;;;;;;-149.78;100.00;50440.16;5072642;28;20028;-63
2021/11/18 08:23:41;;;;;;;6.00;3.72;;;;;;;-149.78;100.00;50412.78;5071826;28;20484;-63
2021/11/18 08:26:10;;;;;;;5.32;3.78;;;;;;;-149.78;100.00;50420.59;5068038;28;20052;-63
2021/11/18 08:28:36;;;;;;;5.60;3.20;;;;;;;-149.78;100.00;50467.53;5069795;28;20032;-63
2021/11/18 08:31:02;;;;;;;4.53;3.10;;;;;;;-149.78;100.00;50432.31;5071014;28;20101;-64
2021/11/18 08:33:29;;;;;;;7.28;3.50;;;;;;;-149.78;100.00;50424.50;5066811;28;20116;-64
2021/11/18 08:35:55;;;;;;;8.98;3.40;;;;;;;-149.78;100.00;50447.97;5054130;28;20052;-64
2021/11/18 08:38:22;;;;;;;4.18;3.30;;;;;;;-149.78;100.00;50393.22;5065541;28;20035;-63
2021/11/18 08:40:58;;;;;;;6.30;3.40;;;;;;;-149.78;100.00;50451.88;5058745;28;20110;-63
2021/11/18 08:43:24;;;;;;;5.00;3.50;;;;;;;-149.78;100.00;50449.94;5061915;28;20037;-63
2021/11/18 08:45:50;;;;;;;6.00;3.47;;;;;;;-149.78;100.00;50426.47;5066122;28;20029;-63
2021/11/18 08:48:17;;;;;;;4.25;2.88;;;;;;;-149.78;100.00;50455.81;5056139;28;20041;-63
2021/11/18 08:50:45;;;;;;;5.93;3.42;;;;;;;-149.78;100.00;50438.19;5065568;28;20036;-63
2021/11/18 08:53:12;;;;;;;4.65;3.08;;;;;;;-149.78;100.00;50469.50;5054000;28;20120;-63
2021/11/18 08:55:41;;;;;;;10.48;3.88;;;;;;;-149.78;100.00;50408.84;5054528;28;20033;-64
2021/11/18 08:58:10;;;;;;;6.07;2.95;;;;;;;-149.78;100.00;50434.28;5057017;28;20380;-64
2021/11/18 09:00:40;;;;;;;4.55;2.90;;;;;;;-149.78;100.00;50428.41;5066892;28;20470;-63
2021/11/18 09:03:06;;;;;;;4.10;2.95;;;;;;;-149.78;100.00;50397.13;5065814;28;20089;-62
2021/11/18 09:05:32;;;;;;;5.30;2.67;;;;;;;-149.78;100.00;50381.47;5068162;28;20115;-63
2021/11/18 09:07:59;;;;;;;4.97;2.50;;;;;;;-149.78;100.00;50447.97;5069120;28;20119;-63
2021/11/18 09:10:26;;;;;;;7.15;3.65;;;;;;;-149.78;100.00;50436.25;5067666;28;20543;-63
2021/11/18 09:12:52;;;;;;;9.80;3.78;;;;;;;-149.78;100.00;50428.41;5069819;28;20129;-62
2021/11/18 09:15:21;;;;;;;6.97;3.75;;;;;;;-149.78;100.00;50416.69;5068254;28;20157;-63
2021/11/18 09:17:47;;;;;;;4.88;3.60;;;;;;;-149.78;100.00;50416.69;5066954;28;20107;-63
2021/11/18 09:20:15;;;;;;;19.73;5.63;;;;;;;-149.78;100.00;50432.31;5062869;28;20377;-62
2021/11/18 09:22:42;;;;;;;5.88;3.40;;;;;;;-149.78;100.00;50393.22;5069537;28;20028;-62
2021/11/18 09:25:12;;;;;;;7.45;3.55;;;;;;;-149.78;100.00;50420.59;5068350;28;20032;-62
2021/11/18 09:27:50;;;;;;;5.53;3.45;;;;;;;-149.78;100.00;50401.03;5069921;28;20024;-62
2021/11/18 09:30:42;;;;;;;5.93;3.72;;;;;;;-149.78;100.00;50428.41;5066408;28;20118;-63
2021/11/18 09:33:09;;;;;;;8.32;3.55;;;;;;;-149.78;100.00;50412.78;5069842;28;20024;-63
2021/11/18 09:35:38;;;;;;;5.65;3.78;;;;;;;-149.78;100.00;50401.03;5069437;28;20049;-63
2021/11/18 09:38:05;;;;;;;6.50;3.88;;;;;;;-149.78;100.00;50397.13;5065452;28;20040;-62
2021/11/18 09:40:48;;;;;;;7.10;4.70;;;;;;;-149.78;100.00;50412.78;5070866;28;20084;-62
2021/11/18 09:43:23;;;;;;;9.15;5.03;;;;;;;-149.78;100.00;50428.41;5057175;28;20078;-62
2021/11/18 09:46:11;;;;;;;7.85;5.72;;;;;;;-149.78;100.00;50404.94;5068975;28;20028;-62
2021/11/18 09:49:22;;;;;;;11.40;6.78;;;;;;;-149.78;100.00;50361.91;5066541;28;20033;-63
2021/11/18 09:52:21;;;;;;;9.95;6.35;;;;;;;-149.78;100.00;50408.84;5063160;28;20123;-63
2021/11/18 09:54:59;;;;;;;12.18;7.60;;;;;;;-149.78;100.00;50373.66;5067651;28;20033;-62
2021/11/18 09:57:37;;;;;;;11.82;7.60;;;;;;;-149.78;100.00;50428.41;5064467;28;20044;-62
2021/11/18 10:00:10;;;;;;;11.90;7.40;;;;;;;-149.78;100.00;50416.69;5063863;28;20039;-62
2021/11/18 10:03:03;;;;;;;23.52;9.68;;;;;;;-149.78;100.00;50416.69;5056384;28;20055;-63
2021/11/18 10:05:44;;;;;;;10.85;6.93;;;;;;;-149.78;100.00;50383.44;5068061;28;20028;-62
2021/11/18 10:08:19;;;;;;;9.93;6.30;;;;;;;-149.78;100.00;50401.03;5067314;28;20048;-62
2021/11/18 10:11:10;;;;;;;8.57;5.63;;;;;;;-149.78;100.00;50397.13;5068499;28;20032;-62
2021/11/18 10:13:58;;;;;;;6.65;4.85;;;;;;;-149.78;100.00;50422.56;5062635;28;20028;-63
2021/11/18 10:16:27;;;;;;;9.73;5.10;;;;;;;-149.78;100.00;50408.84;5057822;28;20428;-62
2021/11/18 10:19:00;;;;;;;3.83;2.72;;;;;;;-149.78;100.00;50412.78;5061966;28;20037;-62
2021/11/18 10:21:30;;;;;;;1.98;1.60;;;;;;;-149.78;100.00;50401.03;5066075;28;20443;-62
2021/11/18 10:24:07;;;;;;;6.88;1.60;;;;;;;-149.78;100.00;50432.31;5069775;28;20377;-62
2021/11/18 10:26:40;;;;;;;4.00;1.80;;;;;;;-149.78;100.00;50381.47;5056927;28;20418;-64
2021/11/18 10:29:14;;;;;;;3.75;1.20;;;;;;;-149.78;100.00;50381.47;5066980;28;20029;-62
2021/11/18 10:31:50;;;;;;;0.75;0.75;;;;;;;-149.78;100.00;50365.84;5068971;28;20541;-62
2021/11/18 10:34:16;;;;;;;3.97;0.80;;;;;;;-149.78;100.00;50387.34;5063753;28;20137;-62
2021/11/18 10:37:00;;;;;;;2.42;0.90;;;;;;;-149.78;100.00;50397.13;5059244;28;20032;-62
2021/11/18 10:39:37;;;;;;;2.60;0.70;;;;;;;-149.78;100.00;50397.13;5066215;28;20039;-62
2021/11/18 10:42:10;;;;;;;3.65;0.68;;;;;;;-149.78;100.00;50401.03;5070851;28;20035;-62
2021/11/18 10:44:44;;;;;;;;;;;;;;;-149.78;100.00;50397.13;5071953;28;20055;-63
2021/11/18 10:47:15;;;;;;;2.75;0.68;;;;;;;-149.78;100.00;50391.25;5073325;28;20245;-63
2021/11/18 10:49:48;;;;;;;2.95;0.80;;;;;;;-149.78;100.00;50381.47;5062631;28;20025;-63
2021/11/18 10:52:29;;;;;;;3.25;0.90;;;;;;;-149.78;100.00;50385.38;5069875;28;20059;-63
2021/11/18 10:55:18;;;;;;;2.67;1.48;;;;;;;-149.78;100.00;50385.38;5061462;28;20033;-63
2021/11/18 10:58:10;;;;;;;21.35;2.60;;;;;;;-149.78;100.00;50416.69;5061219;28;20045;-62
2021/11/18 11:00:37;;;;;;;1.77;0.60;;;;;;;-149.78;100.00;50406.91;5054116;28;20043;-62
2021/11/18 11:03:34;;;;;;;6.68;0.75;;;;;;;-149.78;100.00;50393.22;5066184;28;20032;-62
2021/11/18 11:06:29;;;;;;;2.33;0.73;;;;;;;-149.78;100.00;50389.31;5071606;28;20490;-63
2021/11/18 11:09:04;;;;;;;0.88;0.40;;;;;;;-149.78;100.00;50381.47;5071864;28;20038;-62
2021/11/18 11:11:44;;;;;;;1.38;0.50;;;;;;;-149.78;100.00;50334.53;5070291;28;20036;-62
2021/11/18 11:14:28;;;;;;;5.72;1.05;;;;;;;-149.78;100.00;50414.72;5086535;28;20043;-62